sensor_id;sensor_type;location;lat;lon;timestamp;P1;durP1;ratioP1;P2;durP2;ratioP2
48327;SDS011;34136;51.022;7.082;2023-04-15T00:01:03;6.88;;;3.05;;
48327;SDS011;34136;51.022;7.082;2023-04-15T00:03:50;8.50;;;3.25;;
48327;SDS011;34136;51.022;7.082;2023-04-15T00:06:37;9.50;;;2.97;;
48327;SDS011;34136;51.022;7.082;2023-04-15T00:09:24;6.20;;;3.00;;
48327;SDS011;34136;51.022;7.082;2023-04-15T00:12:10;7.97;;;3.15;;
48327;SDS011;34136;51.022;7.082;2023-04-15T00:14:57;8.40;;;3.05;;
48327;SDS011;34136;51.022;7.082;2023-04-15T00:17:43;8.10;;;3.20;;
48327;SDS011;34136;51.022;7.082;2023-04-15T00:20:30;9.48;;;3.20;;
48327;SDS011;34136;51.022;7.082;2023-04-15T00:23:17;8.15;;;3.10;;
48327;SDS011;34136;51.022;7.082;2023-04-15T00:26:03;6.30;;;3.00;;
48327;SDS011;34136;51.022;7.082;2023-04-15T00:28:49;7.88;;;3.17;;
48327;SDS011;34136;51.022;7.082;2023-04-15T00:31:35;7.63;;;2.90;;
48327;SDS011;34136;51.022;7.082;2023-04-15T00:34:22;7.78;;;3.10;;
48327;SDS011;34136;51.022;7.082;2023-04-15T00:37:08;7.90;;;3.35;;
48327;SDS011;34136;51.022;7.082;2023-04-15T00:39:55;4.93;;;3.08;;
48327;SDS011;34136;51.022;7.082;2023-04-15T00:42:42;7.55;;;2.92;;
48327;SDS011;34136;51.022;7.082;2023-04-15T00:45:28;5.53;;;2.97;;
48327;SDS011;34136;51.022;7.082;2023-04-15T00:48:15;7.03;;;2.95;;
48327;SDS011;34136;51.022;7.082;2023-04-15T00:51:01;7.35;;;3.03;;
48327;SDS011;34136;51.022;7.082;2023-04-15T00:53:47;5.32;;;2.75;;
48327;SDS011;34136;51.022;7.082;2023-04-15T00:56:34;7.53;;;2.67;;
48327;SDS011;34136;51.022;7.082;2023-04-15T00:59:22;6.30;;;3.20;;
48327;SDS011;34136;51.022;7.082;2023-04-15T01:02:08;7.80;;;2.72;;
48327;SDS011;34136;51.022;7.082;2023-04-15T01:04:55;6.93;;;3.20;;
48327;SDS011;34136;51.022;7.082;2023-04-15T01:07:41;8.65;;;3.22;;
48327;SDS011;34136;51.022;7.082;2023-04-15T01:10:28;6.25;;;3.17;;
48327;SDS011;34136;51.022;7.082;2023-04-15T01:13:15;9.82;;;3.30;;
48327;SDS011;34136;51.022;7.082;2023-04-15T01:16:01;6.63;;;3.00;;
48327;SDS011;34136;51.022;7.082;2023-04-15T01:18:48;6.28;;;3.15;;
48327;SDS011;34136;51.022;7.082;2023-04-15T01:21:38;8.85;;;2.92;;
48327;SDS011;34136;51.022;7.082;2023-04-15T01:24:25;6.20;;;2.80;;
48327;SDS011;34136;51.022;7.082;2023-04-15T01:27:13;7.55;;;3.33;;
48327;SDS011;34136;51.022;7.082;2023-04-15T01:29:59;8.02;;;3.25;;
48327;SDS011;34136;51.022;7.082;2023-04-15T01:32:46;10.02;;;3.50;;
48327;SDS011;34136;51.022;7.082;2023-04-15T01:35:32;8.40;;;3.20;;
48327;SDS011;34136;51.022;7.082;2023-04-15T01:38:18;10.10;;;3.00;;
48327;SDS011;34136;51.022;7.082;2023-04-15T01:41:05;7.32;;;2.78;;
48327;SDS011;34136;51.022;7.082;2023-04-15T01:43:51;4.65;;;2.67;;
48327;SDS011;34136;51.022;7.082;2023-04-15T01:46:38;8.30;;;3.28;;
48327;SDS011;34136;51.022;7.082;2023-04-15T01:49:24;5.47;;;2.70;;
48327;SDS011;34136;51.022;7.082;2023-04-15T01:52:12;10.43;;;2.90;;
48327;SDS011;34136;51.022;7.082;2023-04-15T01:54:59;6.22;;;2.90;;
48327;SDS011;34136;51.022;7.082;2023-04-15T01:57:45;6.28;;;3.35;;
48327;SDS011;34136;51.022;7.082;2023-04-15T02:00:32;6.97;;;2.80;;
48327;SDS011;34136;51.022;7.082;2023-04-15T02:03:18;3.75;;;2.72;;
48327;SDS011;34136;51.022;7.082;2023-04-15T02:06:24;6.85;;;3.03;;
48327;SDS011;34136;51.022;7.082;2023-04-15T02:09:10;5.68;;;2.80;;
48327;SDS011;34136;51.022;7.082;2023-04-15T02:11:57;7.05;;;3.00;;
48327;SDS011;34136;51.022;7.082;2023-04-15T02:14:43;7.57;;;2.75;;
48327;SDS011;34136;51.022;7.082;2023-04-15T02:17:29;6.53;;;3.08;;
48327;SDS011;34136;51.022;7.082;2023-04-15T02:20:19;5.90;;;2.72;;
48327;SDS011;34136;51.022;7.082;2023-04-15T02:23:06;5.72;;;3.17;;
48327;SDS011;34136;51.022;7.082;2023-04-15T02:25:52;7.65;;;3.00;;
48327;SDS011;34136;51.022;7.082;2023-04-15T02:28:38;5.88;;;3.10;;
48327;SDS011;34136;51.022;7.082;2023-04-15T02:31:25;5.35;;;3.15;;
48327;SDS011;34136;51.022;7.082;2023-04-15T02:34:11;5.75;;;2.90;;
48327;SDS011;34136;51.022;7.082;2023-04-15T02:37:01;9.45;;;2.85;;
48327;SDS011;34136;51.022;7.082;2023-04-15T02:39:49;7.80;;;3.65;;
48327;SDS011;34136;51.022;7.082;2023-04-15T02:42:35;7.68;;;3.20;;
48327;SDS011;34136;51.022;7.082;2023-04-15T02:45:21;10.77;;;3.58;;
48327;SDS011;34136;51.022;7.082;2023-04-15T02:48:08;6.57;;;3.20;;
48327;SDS011;34136;51.022;7.082;2023-04-15T02:51:09;9.80;;;3.10;;
48327;SDS011;34136;51.022;7.082;2023-04-15T02:54:04;8.57;;;3.20;;
48327;SDS011;34136;51.022;7.082;2023-04-15T02:56:51;7.25;;;3.63;;
48327;SDS011;34136;51.022;7.082;2023-04-15T02:59:37;7.43;;;3.80;;
48327;SDS011;34136;51.022;7.082;2023-04-15T03:02:23;6.05;;;3.58;;
48327;SDS011;34136;51.022;7.082;2023-04-15T03:05:10;8.90;;;3.60;;
48327;SDS011;34136;51.022;7.082;2023-04-15T03:07:59;4.95;;;3.13;;
48327;SDS011;34136;51.022;7.082;2023-04-15T03:10:46;6.53;;;3.15;;
48327;SDS011;34136;51.022;7.082;2023-04-15T03:13:32;8.68;;;3.70;;
48327;SDS011;34136;51.022;7.082;2023-04-15T03:19:11;9.27;;;3.20;;
48327;SDS011;34136;51.022;7.082;2023-04-15T03:22:00;5.55;;;3.33;;
48327;SDS011;34136;51.022;7.082;2023-04-15T03:24:46;5.70;;;3.20;;
48327;SDS011;34136;51.022;7.082;2023-04-15T03:27:32;7.47;;;3.33;;
48327;SDS011;34136;51.022;7.082;2023-04-15T03:30:21;6.30;;;3.25;;
48327;SDS011;34136;51.022;7.082;2023-04-15T03:33:08;9.55;;;4.05;;
48327;SDS011;34136;51.022;7.082;2023-04-15T03:35:55;8.15;;;3.83;;
48327;SDS011;34136;51.022;7.082;2023-04-15T03:38:41;7.10;;;3.78;;
48327;SDS011;34136;51.022;7.082;2023-04-15T03:41:28;5.82;;;3.70;;
48327;SDS011;34136;51.022;7.082;2023-04-15T03:44:14;5.85;;;3.13;;
48327;SDS011;34136;51.022;7.082;2023-04-15T03:47:00;4.85;;;3.40;;
48327;SDS011;34136;51.022;7.082;2023-04-15T03:49:46;6.90;;;3.63;;
48327;SDS011;34136;51.022;7.082;2023-04-15T03:52:33;6.40;;;3.30;;
48327;SDS011;34136;51.022;7.082;2023-04-15T03:55:19;6.22;;;3.50;;
48327;SDS011;34136;51.022;7.082;2023-04-15T03:58:05;7.40;;;3.05;;
48327;SDS011;34136;51.022;7.082;2023-04-15T04:00:51;9.40;;;4.10;;
48327;SDS011;34136;51.022;7.082;2023-04-15T04:03:38;10.73;;;3.92;;
48327;SDS011;34136;51.022;7.082;2023-04-15T04:06:24;9.10;;;3.55;;
48327;SDS011;34136;51.022;7.082;2023-04-15T04:09:11;8.73;;;4.38;;
48327;SDS011;34136;51.022;7.082;2023-04-15T04:11:57;7.93;;;3.63;;
48327;SDS011;34136;51.022;7.082;2023-04-15T04:14:43;7.80;;;4.05;;
48327;SDS011;34136;51.022;7.082;2023-04-15T04:17:29;10.43;;;3.90;;
48327;SDS011;34136;51.022;7.082;2023-04-15T04:20:15;6.03;;;3.83;;
48327;SDS011;34136;51.022;7.082;2023-04-15T04:23:01;6.80;;;3.78;;
48327;SDS011;34136;51.022;7.082;2023-04-15T04:25:48;5.72;;;3.85;;
48327;SDS011;34136;51.022;7.082;2023-04-15T04:28:34;5.95;;;3.65;;
48327;SDS011;34136;51.022;7.082;2023-04-15T04:31:20;5.18;;;3.42;;
48327;SDS011;34136;51.022;7.082;2023-04-15T04:34:06;7.10;;;3.97;;
48327;SDS011;34136;51.022;7.082;2023-04-15T04:36:53;4.68;;;3.70;;
48327;SDS011;34136;51.022;7.082;2023-04-15T04:39:39;7.57;;;4.03;;
48327;SDS011;34136;51.022;7.082;2023-04-15T04:42:25;7.63;;;4.50;;
48327;SDS011;34136;51.022;7.082;2023-04-15T04:45:12;7.43;;;3.92;;
48327;SDS011;34136;51.022;7.082;2023-04-15T04:47:58;6.30;;;4.25;;
48327;SDS011;34136;51.022;7.082;2023-04-15T04:50:44;6.75;;;4.13;;
48327;SDS011;34136;51.022;7.082;2023-04-15T04:53:31;7.03;;;4.53;;
48327;SDS011;34136;51.022;7.082;2023-04-15T04:56:17;6.97;;;4.30;;
48327;SDS011;34136;51.022;7.082;2023-04-15T04:59:04;6.05;;;4.35;;
48327;SDS011;34136;51.022;7.082;2023-04-15T05:01:50;7.32;;;4.40;;
48327;SDS011;34136;51.022;7.082;2023-04-15T05:04:36;6.32;;;4.05;;
48327;SDS011;34136;51.022;7.082;2023-04-15T05:07:23;10.10;;;4.80;;
48327;SDS011;34136;51.022;7.082;2023-04-15T05:10:09;8.38;;;4.38;;
48327;SDS011;34136;51.022;7.082;2023-04-15T05:12:56;6.60;;;4.32;;
48327;SDS011;34136;51.022;7.082;2023-04-15T05:15:42;13.20;;;4.35;;
48327;SDS011;34136;51.022;7.082;2023-04-15T05:18:29;9.73;;;4.40;;
48327;SDS011;34136;51.022;7.082;2023-04-15T05:21:15;12.77;;;4.35;;
48327;SDS011;34136;51.022;7.082;2023-04-15T05:24:02;7.55;;;4.22;;
48327;SDS011;34136;51.022;7.082;2023-04-15T05:26:49;8.55;;;4.13;;
48327;SDS011;34136;51.022;7.082;2023-04-15T05:29:35;9.77;;;4.18;;
48327;SDS011;34136;51.022;7.082;2023-04-15T05:32:21;7.93;;;4.97;;
48327;SDS011;34136;51.022;7.082;2023-04-15T05:35:08;6.78;;;4.65;;
48327;SDS011;34136;51.022;7.082;2023-04-15T05:37:54;6.25;;;4.30;;
48327;SDS011;34136;51.022;7.082;2023-04-15T05:40:40;9.65;;;4.97;;
48327;SDS011;34136;51.022;7.082;2023-04-15T05:43:27;6.57;;;4.35;;
48327;SDS011;34136;51.022;7.082;2023-04-15T05:46:13;10.02;;;6.35;;
48327;SDS011;34136;51.022;7.082;2023-04-15T05:48:59;8.70;;;4.75;;
48327;SDS011;34136;51.022;7.082;2023-04-15T05:51:46;7.20;;;4.80;;
48327;SDS011;34136;51.022;7.082;2023-04-15T05:54:32;6.75;;;5.25;;
48327;SDS011;34136;51.022;7.082;2023-04-15T05:57:19;8.27;;;5.20;;
48327;SDS011;34136;51.022;7.082;2023-04-15T06:00:05;8.40;;;5.25;;
48327;SDS011;34136;51.022;7.082;2023-04-15T06:02:56;8.98;;;5.00;;
48327;SDS011;34136;51.022;7.082;2023-04-15T06:05:42;7.90;;;5.22;;
48327;SDS011;34136;51.022;7.082;2023-04-15T06:08:29;6.20;;;5.20;;
48327;SDS011;34136;51.022;7.082;2023-04-15T06:11:15;8.57;;;5.90;;
48327;SDS011;34136;51.022;7.082;2023-04-15T06:14:02;7.93;;;6.05;;
48327;SDS011;34136;51.022;7.082;2023-04-15T06:16:48;7.60;;;5.40;;
48327;SDS011;34136;51.022;7.082;2023-04-15T06:19:34;6.50;;;5.28;;
48327;SDS011;34136;51.022;7.082;2023-04-15T06:22:21;8.60;;;5.03;;
48327;SDS011;34136;51.022;7.082;2023-04-15T06:25:08;6.32;;;4.93;;
48327;SDS011;34136;51.022;7.082;2023-04-15T06:27:54;10.00;;;5.00;;
48327;SDS011;34136;51.022;7.082;2023-04-15T06:30:40;7.93;;;5.18;;
48327;SDS011;34136;51.022;7.082;2023-04-15T06:33:27;8.52;;;5.40;;
48327;SDS011;34136;51.022;7.082;2023-04-15T06:36:13;6.57;;;5.10;;
48327;SDS011;34136;51.022;7.082;2023-04-15T06:39:00;9.10;;;5.25;;
48327;SDS011;34136;51.022;7.082;2023-04-15T06:41:46;10.75;;;5.90;;
48327;SDS011;34136;51.022;7.082;2023-04-15T06:44:33;8.95;;;5.72;;
48327;SDS011;34136;51.022;7.082;2023-04-15T06:47:19;10.60;;;6.15;;
48327;SDS011;34136;51.022;7.082;2023-04-15T06:50:05;8.75;;;6.68;;
48327;SDS011;34136;51.022;7.082;2023-04-15T06:52:53;10.45;;;6.60;;
48327;SDS011;34136;51.022;7.082;2023-04-15T06:55:40;7.45;;;6.28;;
48327;SDS011;34136;51.022;7.082;2023-04-15T06:58:26;11.30;;;6.88;;
48327;SDS011;34136;51.022;7.082;2023-04-15T07:01:12;10.77;;;6.05;;
48327;SDS011;34136;51.022;7.082;2023-04-15T07:03:59;9.32;;;6.30;;
48327;SDS011;34136;51.022;7.082;2023-04-15T07:06:46;8.57;;;5.55;;
48327;SDS011;34136;51.022;7.082;2023-04-15T07:09:32;8.23;;;5.82;;
48327;SDS011;34136;51.022;7.082;2023-04-15T07:12:18;6.65;;;5.60;;
48327;SDS011;34136;51.022;7.082;2023-04-15T07:15:04;7.70;;;5.85;;
48327;SDS011;34136;51.022;7.082;2023-04-15T07:17:51;7.35;;;5.45;;
48327;SDS011;34136;51.022;7.082;2023-04-15T07:20:37;8.48;;;5.43;;
48327;SDS011;34136;51.022;7.082;2023-04-15T07:23:24;6.07;;;4.65;;
48327;SDS011;34136;51.022;7.082;2023-04-15T07:26:10;5.07;;;4.53;;
48327;SDS011;34136;51.022;7.082;2023-04-15T07:28:57;5.47;;;4.32;;
48327;SDS011;34136;51.022;7.082;2023-04-15T07:31:43;9.75;;;4.25;;
48327;SDS011;34136;51.022;7.082;2023-04-15T07:34:29;5.40;;;3.90;;
48327;SDS011;34136;51.022;7.082;2023-04-15T07:37:15;5.90;;;3.97;;
48327;SDS011;34136;51.022;7.082;2023-04-15T07:40:02;4.85;;;3.50;;
48327;SDS011;34136;51.022;7.082;2023-04-15T07:42:48;6.43;;;3.60;;
48327;SDS011;34136;51.022;7.082;2023-04-15T07:45:34;5.43;;;2.70;;
48327;SDS011;34136;51.022;7.082;2023-04-15T07:48:21;4.85;;;2.95;;
48327;SDS011;34136;51.022;7.082;2023-04-15T07:51:07;3.22;;;2.40;;
48327;SDS011;34136;51.022;7.082;2023-04-15T07:53:53;5.18;;;2.35;;
48327;SDS011;34136;51.022;7.082;2023-04-15T07:56:40;5.85;;;2.70;;
48327;SDS011;34136;51.022;7.082;2023-04-15T07:59:26;4.80;;;2.33;;
48327;SDS011;34136;51.022;7.082;2023-04-15T08:02:12;5.60;;;2.63;;
48327;SDS011;34136;51.022;7.082;2023-04-15T08:05:00;5.93;;;2.45;;
48327;SDS011;34136;51.022;7.082;2023-04-15T08:07:46;2.95;;;1.92;;
48327;SDS011;34136;51.022;7.082;2023-04-15T08:10:32;3.80;;;2.13;;
48327;SDS011;34136;51.022;7.082;2023-04-15T08:13:18;3.85;;;2.28;;
48327;SDS011;34136;51.022;7.082;2023-04-15T08:19:06;5.30;;;3.10;;
48327;SDS011;34136;51.022;7.082;2023-04-15T08:21:52;5.55;;;2.40;;
48327;SDS011;34136;51.022;7.082;2023-04-15T08:24:39;3.22;;;2.30;;
48327;SDS011;34136;51.022;7.082;2023-04-15T08:27:25;3.97;;;2.70;;
48327;SDS011;34136;51.022;7.082;2023-04-15T08:30:11;3.15;;;2.00;;
48327;SDS011;34136;51.022;7.082;2023-04-15T08:32:58;3.28;;;2.08;;
48327;SDS011;34136;51.022;7.082;2023-04-15T08:35:45;3.72;;;2.30;;
48327;SDS011;34136;51.022;7.082;2023-04-15T08:38:31;3.15;;;1.98;;
48327;SDS011;34136;51.022;7.082;2023-04-15T08:41:21;5.00;;;1.95;;
48327;SDS011;34136;51.022;7.082;2023-04-15T08:44:09;2.40;;;1.70;;
48327;SDS011;34136;51.022;7.082;2023-04-15T08:46:56;2.08;;;1.40;;
48327;SDS011;34136;51.022;7.082;2023-04-15T08:49:46;3.00;;;1.73;;
48327;SDS011;34136;51.022;7.082;2023-04-15T08:52:33;3.50;;;1.85;;
48327;SDS011;34136;51.022;7.082;2023-04-15T08:55:19;2.60;;;1.65;;
48327;SDS011;34136;51.022;7.082;2023-04-15T08:58:06;3.20;;;1.80;;
48327;SDS011;34136;51.022;7.082;2023-04-15T09:00:55;3.58;;;1.70;;
48327;SDS011;34136;51.022;7.082;2023-04-15T09:03:41;3.28;;;1.90;;
48327;SDS011;34136;51.022;7.082;2023-04-15T09:06:28;4.32;;;1.90;;
48327;SDS011;34136;51.022;7.082;2023-04-15T09:09:15;3.22;;;1.92;;
48327;SDS011;34136;51.022;7.082;2023-04-15T09:12:01;5.15;;;2.20;;
48327;SDS011;34136;51.022;7.082;2023-04-15T09:14:47;4.18;;;2.22;;
48327;SDS011;34136;51.022;7.082;2023-04-15T09:17:34;5.43;;;2.63;;
48327;SDS011;34136;51.022;7.082;2023-04-15T09:20:26;4.38;;;2.80;;
48327;SDS011;34136;51.022;7.082;2023-04-15T09:23:13;3.78;;;2.50;;
48327;SDS011;34136;51.022;7.082;2023-04-15T09:26:01;4.78;;;2.47;;
48327;SDS011;34136;51.022;7.082;2023-04-15T09:28:47;3.65;;;1.90;;
48327;SDS011;34136;51.022;7.082;2023-04-15T09:31:34;2.80;;;2.17;;
48327;SDS011;34136;51.022;7.082;2023-04-15T09:34:33;3.65;;;2.28;;
48327;SDS011;34136;51.022;7.082;2023-04-15T09:37:33;2.13;;;1.77;;
48327;SDS011;34136;51.022;7.082;2023-04-15T09:43:37;2.83;;;2.05;;
48327;SDS011;34136;51.022;7.082;2023-04-15T09:46:43;2.65;;;1.92;;
48327;SDS011;34136;51.022;7.082;2023-04-15T09:49:30;2.78;;;1.73;;
48327;SDS011;34136;51.022;7.082;2023-04-15T09:52:17;2.03;;;1.70;;
48327;SDS011;34136;51.022;7.082;2023-04-15T09:55:03;3.10;;;1.80;;
48327;SDS011;34136;51.022;7.082;2023-04-15T09:57:51;3.88;;;2.13;;
48327;SDS011;34136;51.022;7.082;2023-04-15T10:00:37;5.80;;;2.47;;
48327;SDS011;34136;51.022;7.082;2023-04-15T10:03:27;3.47;;;2.60;;
48327;SDS011;34136;51.022;7.082;2023-04-15T10:06:15;4.93;;;2.65;;
48327;SDS011;34136;51.022;7.082;2023-04-15T10:09:01;4.10;;;3.08;;
48327;SDS011;34136;51.022;7.082;2023-04-15T10:11:48;5.18;;;3.53;;
48327;SDS011;34136;51.022;7.082;2023-04-15T10:14:35;5.30;;;3.28;;
48327;SDS011;34136;51.022;7.082;2023-04-15T10:17:25;4.75;;;3.90;;
48327;SDS011;34136;51.022;7.082;2023-04-15T10:20:13;4.63;;;3.35;;
48327;SDS011;34136;51.022;7.082;2023-04-15T10:23:01;4.15;;;3.63;;
48327;SDS011;34136;51.022;7.082;2023-04-15T10:25:49;4.15;;;3.75;;
48327;SDS011;34136;51.022;7.082;2023-04-15T10:28:37;4.63;;;3.03;;
48327;SDS011;34136;51.022;7.082;2023-04-15T10:31:24;3.47;;;2.67;;
48327;SDS011;34136;51.022;7.082;2023-04-15T10:34:10;4.70;;;2.80;;
48327;SDS011;34136;51.022;7.082;2023-04-15T10:36:59;4.35;;;2.50;;
48327;SDS011;34136;51.022;7.082;2023-04-15T10:39:47;3.70;;;2.83;;
48327;SDS011;34136;51.022;7.082;2023-04-15T10:48:06;3.17;;;2.75;;
48327;SDS011;34136;51.022;7.082;2023-04-15T10:50:56;3.13;;;2.83;;
48327;SDS011;34136;51.022;7.082;2023-04-15T10:53:42;2.88;;;2.35;;
48327;SDS011;34136;51.022;7.082;2023-04-15T10:56:29;4.38;;;2.42;;
48327;SDS011;34136;51.022;7.082;2023-04-15T10:59:15;3.67;;;2.90;;
48327;SDS011;34136;51.022;7.082;2023-04-15T11:02:02;2.83;;;2.40;;
48327;SDS011;34136;51.022;7.082;2023-04-15T11:04:55;3.70;;;2.60;;
48327;SDS011;34136;51.022;7.082;2023-04-15T11:13:18;2.60;;;2.40;;
48327;SDS011;34136;51.022;7.082;2023-04-15T11:16:06;5.25;;;2.40;;
48327;SDS011;34136;51.022;7.082;2023-04-15T11:19:05;4.40;;;2.70;;
48327;SDS011;34136;51.022;7.082;2023-04-15T11:21:51;3.05;;;2.70;;
48327;SDS011;34136;51.022;7.082;2023-04-15T11:24:47;3.50;;;2.70;;
48327;SDS011;34136;51.022;7.082;2023-04-15T11:27:33;2.88;;;2.50;;
48327;SDS011;34136;51.022;7.082;2023-04-15T11:33:07;3.25;;;2.80;;
48327;SDS011;34136;51.022;7.082;2023-04-15T11:35:54;3.10;;;2.60;;
48327;SDS011;34136;51.022;7.082;2023-04-15T11:38:43;2.83;;;2.60;;
48327;SDS011;34136;51.022;7.082;2023-04-15T11:41:36;3.03;;;2.72;;
48327;SDS011;34136;51.022;7.082;2023-04-15T11:44:23;2.60;;;2.40;;
48327;SDS011;34136;51.022;7.082;2023-04-15T11:47:27;4.47;;;3.03;;
48327;SDS011;34136;51.022;7.082;2023-04-15T11:50:17;3.92;;;2.40;;
48327;SDS011;34136;51.022;7.082;2023-04-15T11:53:05;3.42;;;2.50;;
48327;SDS011;34136;51.022;7.082;2023-04-15T11:55:53;2.67;;;2.42;;
48327;SDS011;34136;51.022;7.082;2023-04-15T11:58:39;3.30;;;3.00;;
48327;SDS011;34136;51.022;7.082;2023-04-15T12:01:36;3.63;;;3.10;;
48327;SDS011;34136;51.022;7.082;2023-04-15T12:04:23;5.10;;;3.60;;
48327;SDS011;34136;51.022;7.082;2023-04-15T12:07:09;3.50;;;2.97;;
48327;SDS011;34136;51.022;7.082;2023-04-15T12:09:55;4.30;;;3.35;;
48327;SDS011;34136;51.022;7.082;2023-04-15T12:12:42;2.90;;;2.60;;
48327;SDS011;34136;51.022;7.082;2023-04-15T12:15:28;3.15;;;2.85;;
48327;SDS011;34136;51.022;7.082;2023-04-15T12:18:18;4.13;;;3.30;;
48327;SDS011;34136;51.022;7.082;2023-04-15T12:21:08;3.67;;;3.13;;
48327;SDS011;34136;51.022;7.082;2023-04-15T12:23:55;3.97;;;3.17;;
48327;SDS011;34136;51.022;7.082;2023-04-15T12:26:44;3.70;;;3.28;;
48327;SDS011;34136;51.022;7.082;2023-04-15T12:29:33;3.90;;;3.20;;
48327;SDS011;34136;51.022;7.082;2023-04-15T12:32:20;3.67;;;3.20;;
48327;SDS011;34136;51.022;7.082;2023-04-15T12:35:06;3.55;;;3.00;;
48327;SDS011;34136;51.022;7.082;2023-04-15T12:37:53;3.63;;;3.20;;
48327;SDS011;34136;51.022;7.082;2023-04-15T12:40:39;4.30;;;3.60;;
48327;SDS011;34136;51.022;7.082;2023-04-15T12:43:25;3.38;;;3.08;;
48327;SDS011;34136;51.022;7.082;2023-04-15T12:46:12;4.88;;;3.63;;
48327;SDS011;34136;51.022;7.082;2023-04-15T12:48:58;4.10;;;3.70;;
48327;SDS011;34136;51.022;7.082;2023-04-15T12:51:46;4.80;;;3.97;;
48327;SDS011;34136;51.022;7.082;2023-04-15T12:54:34;3.80;;;3.45;;
48327;SDS011;34136;51.022;7.082;2023-04-15T12:57:20;4.68;;;4.07;;
48327;SDS011;34136;51.022;7.082;2023-04-15T13:00:07;4.47;;;4.07;;
48327;SDS011;34136;51.022;7.082;2023-04-15T13:02:53;5.50;;;3.70;;
48327;SDS011;34136;51.022;7.082;2023-04-15T13:05:40;5.22;;;4.72;;
48327;SDS011;34136;51.022;7.082;2023-04-15T13:08:26;5.15;;;4.63;;
48327;SDS011;34136;51.022;7.082;2023-04-15T13:11:13;5.70;;;5.05;;
48327;SDS011;34136;51.022;7.082;2023-04-15T13:14:00;5.88;;;5.28;;
48327;SDS011;34136;51.022;7.082;2023-04-15T13:16:48;7.25;;;6.22;;
48327;SDS011;34136;51.022;7.082;2023-04-15T13:19:34;6.28;;;5.68;;
48327;SDS011;34136;51.022;7.082;2023-04-15T13:22:21;6.25;;;5.68;;
48327;SDS011;34136;51.022;7.082;2023-04-15T13:25:07;6.78;;;6.07;;
48327;SDS011;34136;51.022;7.082;2023-04-15T13:27:54;6.50;;;5.90;;
48327;SDS011;34136;51.022;7.082;2023-04-15T13:30:40;6.90;;;6.20;;
48327;SDS011;34136;51.022;7.082;2023-04-15T13:33:26;6.80;;;6.10;;
48327;SDS011;34136;51.022;7.082;2023-04-15T13:36:13;6.85;;;6.15;;
48327;SDS011;34136;51.022;7.082;2023-04-15T13:38:59;7.32;;;6.63;;
48327;SDS011;34136;51.022;7.082;2023-04-15T13:41:45;7.50;;;6.78;;
48327;SDS011;34136;51.022;7.082;2023-04-15T13:44:32;8.18;;;6.72;;
48327;SDS011;34136;51.022;7.082;2023-04-15T13:47:19;8.43;;;7.72;;
48327;SDS011;34136;51.022;7.082;2023-04-15T13:50:05;9.52;;;8.73;;
48327;SDS011;34136;51.022;7.082;2023-04-15T13:52:52;9.60;;;8.70;;
48327;SDS011;34136;51.022;7.082;2023-04-15T13:55:38;9.73;;;8.73;;
48327;SDS011;34136;51.022;7.082;2023-04-15T13:58:25;9.63;;;8.65;;
48327;SDS011;34136;51.022;7.082;2023-04-15T14:01:11;9.23;;;8.43;;
48327;SDS011;34136;51.022;7.082;2023-04-15T14:03:57;9.45;;;8.65;;
48327;SDS011;34136;51.022;7.082;2023-04-15T14:06:44;9.32;;;8.43;;
48327;SDS011;34136;51.022;7.082;2023-04-15T14:09:31;9.85;;;8.95;;
48327;SDS011;34136;51.022;7.082;2023-04-15T14:12:17;9.07;;;8.30;;
48327;SDS011;34136;51.022;7.082;2023-04-15T14:15:04;8.98;;;8.20;;
48327;SDS011;34136;51.022;7.082;2023-04-15T14:17:51;9.73;;;8.93;;
48327;SDS011;34136;51.022;7.082;2023-04-15T14:20:37;9.77;;;8.13;;
48327;SDS011;34136;51.022;7.082;2023-04-15T14:23:27;8.35;;;7.50;;
48327;SDS011;34136;51.022;7.082;2023-04-15T14:26:13;7.90;;;7.20;;
48327;SDS011;34136;51.022;7.082;2023-04-15T14:28:59;8.50;;;7.20;;
48327;SDS011;34136;51.022;7.082;2023-04-15T14:31:45;6.47;;;5.82;;
48327;SDS011;34136;51.022;7.082;2023-04-15T14:34:32;6.13;;;5.20;;
48327;SDS011;34136;51.022;7.082;2023-04-15T14:37:21;5.60;;;5.10;;
48327;SDS011;34136;51.022;7.082;2023-04-15T14:40:07;5.07;;;4.57;;
48327;SDS011;34136;51.022;7.082;2023-04-15T14:42:57;4.82;;;4.05;;
48327;SDS011;34136;51.022;7.082;2023-04-15T14:45:43;5.18;;;4.20;;
48327;SDS011;34136;51.022;7.082;2023-04-15T14:48:32;5.78;;;4.82;;
48327;SDS011;34136;51.022;7.082;2023-04-15T14:51:18;5.60;;;4.57;;
48327;SDS011;34136;51.022;7.082;2023-04-15T14:54:05;4.28;;;3.58;;
48327;SDS011;34136;51.022;7.082;2023-04-15T14:56:54;7.50;;;4.25;;
48327;SDS011;34136;51.022;7.082;2023-04-15T14:59:41;5.13;;;4.22;;
48327;SDS011;34136;51.022;7.082;2023-04-15T15:02:27;4.28;;;3.63;;
48327;SDS011;34136;51.022;7.082;2023-04-15T15:05:13;5.53;;;4.25;;
48327;SDS011;34136;51.022;7.082;2023-04-15T15:08:00;5.43;;;4.53;;
48327;SDS011;34136;51.022;7.082;2023-04-15T15:10:46;6.95;;;3.60;;
48327;SDS011;34136;51.022;7.082;2023-04-15T15:13:32;5.80;;;3.83;;
48327;SDS011;34136;51.022;7.082;2023-04-15T15:16:20;5.75;;;3.83;;
48327;SDS011;34136;51.022;7.082;2023-04-15T15:19:06;4.68;;;3.65;;
48327;SDS011;34136;51.022;7.082;2023-04-15T15:21:52;5.18;;;3.60;;
48327;SDS011;34136;51.022;7.082;2023-04-15T15:24:39;4.13;;;3.47;;
48327;SDS011;34136;51.022;7.082;2023-04-15T15:27:25;5.05;;;3.60;;
48327;SDS011;34136;51.022;7.082;2023-04-15T15:30:11;10.48;;;4.15;;
48327;SDS011;34136;51.022;7.082;2023-04-15T15:32:58;4.88;;;3.50;;
48327;SDS011;34136;51.022;7.082;2023-04-15T15:35:44;5.57;;;3.83;;
48327;SDS011;34136;51.022;7.082;2023-04-15T15:38:31;4.38;;;3.85;;
48327;SDS011;34136;51.022;7.082;2023-04-15T15:41:17;6.82;;;4.22;;
48327;SDS011;34136;51.022;7.082;2023-04-15T15:44:03;5.32;;;4.00;;
48327;SDS011;34136;51.022;7.082;2023-04-15T15:46:50;4.80;;;3.95;;
48327;SDS011;34136;51.022;7.082;2023-04-15T15:49:36;5.68;;;4.35;;
48327;SDS011;34136;51.022;7.082;2023-04-15T15:52:22;7.25;;;3.85;;
48327;SDS011;34136;51.022;7.082;2023-04-15T15:55:09;5.80;;;4.20;;
48327;SDS011;34136;51.022;7.082;2023-04-15T15:57:55;5.32;;;4.18;;
48327;SDS011;34136;51.022;7.082;2023-04-15T16:00:41;6.30;;;5.07;;
48327;SDS011;34136;51.022;7.082;2023-04-15T16:03:27;7.32;;;4.40;;
48327;SDS011;34136;51.022;7.082;2023-04-15T16:06:13;5.00;;;3.90;;
48327;SDS011;34136;51.022;7.082;2023-04-15T16:09:00;5.43;;;3.40;;
48327;SDS011;34136;51.022;7.082;2023-04-15T16:11:47;5.30;;;3.50;;
48327;SDS011;34136;51.022;7.082;2023-04-15T16:14:33;4.90;;;3.78;;
48327;SDS011;34136;51.022;7.082;2023-04-15T16:17:19;5.15;;;3.47;;
48327;SDS011;34136;51.022;7.082;2023-04-15T16:20:06;4.82;;;3.22;;
48327;SDS011;34136;51.022;7.082;2023-04-15T16:22:55;4.28;;;3.40;;
48327;SDS011;34136;51.022;7.082;2023-04-15T16:25:42;3.55;;;3.20;;
48327;SDS011;34136;51.022;7.082;2023-04-15T16:28:29;7.43;;;3.63;;
48327;SDS011;34136;51.022;7.082;2023-04-15T16:31:16;5.22;;;3.10;;
48327;SDS011;34136;51.022;7.082;2023-04-15T16:34:02;4.28;;;3.33;;
48327;SDS011;34136;51.022;7.082;2023-04-15T16:36:49;4.13;;;3.20;;
48327;SDS011;34136;51.022;7.082;2023-04-15T16:39:35;4.68;;;3.55;;
48327;SDS011;34136;51.022;7.082;2023-04-15T16:42:21;4.38;;;3.30;;
48327;SDS011;34136;51.022;7.082;2023-04-15T16:45:08;3.90;;;3.13;;
48327;SDS011;34136;51.022;7.082;2023-04-15T16:47:57;6.75;;;3.65;;
48327;SDS011;34136;51.022;7.082;2023-04-15T16:50:44;4.68;;;3.53;;
48327;SDS011;34136;51.022;7.082;2023-04-15T16:53:30;3.90;;;3.38;;
48327;SDS011;34136;51.022;7.082;2023-04-15T16:56:16;4.82;;;3.35;;
48327;SDS011;34136;51.022;7.082;2023-04-15T16:59:03;5.18;;;3.45;;
48327;SDS011;34136;51.022;7.082;2023-04-15T17:01:49;4.35;;;3.25;;
48327;SDS011;34136;51.022;7.082;2023-04-15T17:04:35;5.82;;;3.03;;
48327;SDS011;34136;51.022;7.082;2023-04-15T17:07:21;4.57;;;3.20;;
48327;SDS011;34136;51.022;7.082;2023-04-15T17:10:08;4.68;;;3.47;;